Time;durP1;ratioP1;P1;durP2;ratioP2;P2;SDS_P1;SDS_P2;PMS_P1;PMS_P2;Temp;Humidity;BMP_temperature;BMP_pressure;BME280_temperature;BME280_humidity;BME280_pressure;Samples;Min_cycle;Max_cycle;Signal;HPM_P1;HPM_P2
2022/04/02 00:00:40;;;;;;;;;13.75;11.75;;;;;6.39;53.79;101003.09;4981478;28;45323;-73
2022/04/02 00:03:06;;;;;;;;;15.50;15.50;;;;;6.40;53.62;101005.75;4977182;28;45365;-73
2022/04/02 00:05:31;;;;;;;;;12.75;12.50;;;;;6.44;53.73;101015.41;4981387;28;45253;-73
2022/04/02 00:07:57;;;;;;;;;14.50;13.50;;;;;6.48;53.28;101013.59;4981556;28;45290;-73
2022/04/02 00:10:22;;;;;;;;;12.50;12.50;;;;;6.48;53.67;101018.91;4980095;28;47220;-73
2022/04/02 00:12:47;;;;;;;;;12.25;11.25;;;;;6.46;53.02;101018.06;4976370;28;46904;-73
2022/04/02 00:15:13;;;;;;;;;13.50;12.50;;;;;6.43;53.36;101011.03;4983443;28;45513;-73
2022/04/02 00:17:38;;;;;;;;;12.25;9.75;;;;;6.42;52.82;101009.25;4980236;28;45415;-73
2022/04/02 00:20:04;;;;;;;;;5.75;5.00;;;;;6.48;53.29;101017.16;4974003;28;47916;-73
2022/04/02 00:22:30;;;;;;;;;13.25;10.00;;;;;6.40;52.15;101015.44;4974532;28;45397;-73
2022/04/02 00:24:55;;;;;;;;;8.75;7.75;;;;;6.40;52.85;101012.81;4979936;28;45541;-73
2022/04/02 00:27:21;;;;;;;;;11.00;11.00;;;;;6.40;52.79;101020.75;4981531;28;45696;-73
2022/04/02 00:29:46;;;;;;;;;9.00;8.00;;;;;6.32;52.49;101006.72;4981095;28;45396;-72
2022/04/02 00:32:12;;;;;;;;;6.00;6.00;;;;;6.35;52.73;101009.31;4979465;28;45391;-73
2022/04/02 00:34:38;;;;;;;;;8.25;8.25;;;;;6.43;52.36;101010.13;4980853;28;45542;-73
2022/04/02 00:37:03;;;;;;;;;9.00;9.00;;;;;6.38;53.25;101007.53;4981155;28;45324;-73
2022/04/02 00:39:30;;;;;;;;;7.25;7.25;;;;;6.32;51.24;101001.44;4978784;28;46218;-73
2022/04/02 00:41:55;;;;;;;;;10.00;10.00;;;;;6.28;51.55;100998.81;4964028;28;45746;-73
2022/04/02 00:44:21;;;;;;;;;6.50;6.50;;;;;6.19;52.13;100977.69;4979750;28;45292;-73
2022/04/02 00:46:47;;;;;;;;;7.00;5.75;;;;;6.34;52.02;101023.50;4979798;28;45616;-73
2022/04/02 00:49:14;;;;;;;;;8.25;8.25;;;;;6.34;51.07;101010.25;4978599;28;47342;-73
2022/04/02 00:51:41;;;;;;;;;7.25;6.25;;;;;6.32;51.14;101012.03;4980908;28;45764;-73
2022/04/02 00:54:14;;;;;;;;;6.25;6.25;;;;;6.15;51.08;100993.63;4980921;28;45324;-73
2022/04/02 00:56:39;;;;;;;;;6.00;6.00;;;;;6.22;50.72;101014.75;4979370;28;46037;-73
2022/04/02 00:59:05;;;;;;;;;2.75;2.00;;;;;6.10;51.16;100994.56;4976211;28;47272;-73
2022/04/02 01:01:34;;;;;;;;;8.00;6.00;;;;;6.17;51.36;101005.97;4970311;28;45289;-73
2022/04/02 01:04:01;;;;;;;;;2.25;2.25;;;;;6.18;50.86;101012.16;4976198;28;45404;-73
2022/04/02 01:06:27;;;;;;;;;7.00;5.00;;;;;6.13;50.43;101020.16;4974180;28;45462;-73
2022/04/02 01:08:53;;;;;;;;;6.00;4.00;;;;;6.05;50.47;100992.88;4979220;28;47676;-74
2022/04/02 01:11:18;;;;;;;;;4.00;4.00;;;;;6.02;50.83;100996.41;4979953;28;45234;-73
2022/04/02 01:13:44;;;;;;;;;8.50;6.00;;;;;6.12;50.94;101002.50;4979365;28;45517;-73
2022/04/02 01:16:09;;;;;;;;;4.00;3.00;;;;;6.14;50.82;101000.72;4995479;28;45538;-73
2022/04/02 01:18:35;;;;;;;;;3.00;3.00;;;;;6.12;50.52;101000.72;4980566;28;45305;-73
2022/04/02 01:21:00;;;;;;;;;4.00;4.00;;;;;5.97;50.27;100989.41;4967218;28;45330;-72
2022/04/02 01:23:29;;;;;;;;;6.50;4.50;;;;;5.98;50.85;101007.03;4960279;28;45172;-72
2022/04/02 01:25:59;;;;;;;;;5.00;4.50;;;;;5.91;50.48;101006.19;4990010;28;45554;-73
2022/04/02 01:28:25;;;;;;;;;5.25;3.50;;;;;5.87;50.09;101005.34;4966740;28;47299;-73
2022/04/02 01:30:51;;;;;;;;;3.00;3.00;;;;;5.86;50.52;101010.66;4978467;28;45692;-73
2022/04/02 01:33:16;;;;;;;;;5.00;5.00;;;;;5.78;49.86;101000.13;4977388;28;45385;-72
2022/04/02 01:35:42;;;;;;;;;5.50;5.50;;;;;5.85;50.03;101007.13;4978883;28;45463;-73
2022/04/02 01:38:07;;;;;;;;;2.75;2.75;;;;;5.83;50.28;101008.94;4980281;28;45807;-73
2022/04/02 01:40:32;;;;;;;;;6.50;3.00;;;;;5.80;49.89;101019.53;4980177;28;45260;-74
2022/04/02 01:42:58;;;;;;;;;4.50;3.50;;;;;5.77;50.03;101001.03;4972126;28;45341;-73
2022/04/02 01:45:23;;;;;;;;;6.00;5.00;;;;;5.78;49.72;101001.88;4978798;28;45591;-73
2022/04/02 01:47:51;;;;;;;;;6.00;3.50;;;;;5.84;49.99;101020.38;4978985;28;47996;-73
2022/04/02 01:50:17;;;;;;;;;7.00;5.00;;;;;5.83;50.36;101011.56;4978632;28;45403;-73
2022/04/02 01:52:43;;;;;;;;;4.00;2.25;;;;;5.83;50.21;101011.56;4979282;28;45221;-73
2022/04/02 01:55:08;;;;;;;;;3.75;3.75;;;;;5.87;50.21;101012.41;4973776;28;45409;-73
2022/04/02 01:57:34;;;;;;;;;5.50;5.00;;;;;5.79;50.02;101011.59;4980045;28;46141;-74
2022/04/02 01:59:59;;;;;;;;;5.00;5.00;;;;;5.85;50.11;101020.38;4980157;28;45462;-73
2022/04/02 02:02:26;;;;;;;;;4.00;3.00;;;;;5.93;49.75;101036.19;4979405;28;45427;-73
2022/04/02 02:04:51;;;;;;;;;7.00;5.50;;;;;5.95;50.21;101034.44;4977026;28;45744;-73
2022/04/02 02:07:17;;;;;;;;;7.00;5.00;;;;;5.91;49.61;101035.34;4979734;28;45305;-74
2022/04/02 02:09:43;;;;;;;;;5.00;3.00;;;;;5.87;49.66;101029.19;4979998;28;45982;-73
2022/04/02 02:12:09;;;;;;;;;5.00;3.00;;;;;5.92;48.85;101034.47;4979487;28;45377;-72
2022/04/02 02:14:34;;;;;;;;;3.25;2.25;;;;;5.84;49.58;101042.44;4979835;28;45308;-73
2022/04/02 02:16:59;;;;;;;;;2.50;2.50;;;;;5.81;49.59;101031.88;4979498;28;46287;-73
2022/04/02 02:19:25;;;;;;;;;4.25;3.00;;;;;5.92;49.87;101043.28;4976201;28;45685;-73
2022/04/02 02:21:51;;;;;;;;;1.00;0.00;;;;;5.98;49.55;101049.44;4971923;28;45309;-73
2022/04/02 02:24:17;;;;;;;;;4.50;4.50;;;;;5.91;48.90;101054.78;4978946;28;45586;-73
2022/04/02 02:26:42;;;;;;;;;9.00;5.00;;;;;5.80;49.79;101032.78;4979166;28;45318;-73
2022/04/02 02:29:07;;;;;;;;;2.50;2.50;;;;;5.77;50.35;101026.63;4979838;28;45210;-73
2022/04/02 02:31:34;;;;;;;;;6.00;4.00;;;;;5.95;49.01;101042.38;4963992;28;45391;-73
2022/04/02 02:36:44;;;;;;;;;3.50;3.00;;;;;5.82;49.40;101017.75;4979530;28;45834;-73
2022/04/02 02:39:09;;;;;;;;;3.75;2.75;;;;;5.86;49.52;101019.47;4979428;28;45446;-73
2022/04/02 02:41:35;;;;;;;;;5.25;3.00;;;;;6.00;49.55;101037.06;4973909;28;45507;-73
2022/04/02 02:44:00;;;;;;;;;6.00;5.00;;;;;6.03;49.32;101055.59;4990627;28;45403;-73
2022/04/02 02:46:25;;;;;;;;;5.50;2.50;;;;;5.92;49.32;101034.47;4982808;28;45330;-73
2022/04/02 02:48:51;;;;;;;;;3.00;3.00;;;;;5.96;49.17;101043.25;4981941;28;45331;-73
2022/04/02 02:51:16;;;;;;;;;6.00;5.50;;;;;6.03;49.18;101055.59;4980888;28;45578;-73
2022/04/02 02:53:44;;;;;;;;;7.50;5.25;;;;;5.99;49.81;101051.22;4982764;28;45481;-73
2022/04/02 02:56:09;;;;;;;;;2.25;2.25;;;;;5.93;49.48;101037.09;4977236;28;47983;-73
2022/04/02 02:58:35;;;;;;;;;6.00;6.00;;;;;6.04;49.36;101044.97;4982597;28;45249;-73
2022/04/02 03:01:00;;;;;;;;;6.00;6.00;;;;;6.05;49.22;101067.94;4982842;28;45400;-73
2022/04/02 03:03:26;;;;;;;;;5.50;5.50;;;;;5.98;48.98;101047.69;4980692;28;45518;-73
2022/04/02 03:05:52;;;;;;;;;6.00;6.00;;;;;5.76;49.21;101017.78;4982507;28;45836;-73
2022/04/02 03:08:17;;;;;;;;;7.00;5.00;;;;;5.73;49.71;101024.00;4982258;28;45276;-73
2022/04/02 03:10:44;;;;;;;;;6.25;6.25;;;;;6.00;49.38;101068.84;4972188;28;45282;-73
2022/04/02 03:13:11;;;;;;;;;5.50;5.50;;;;;6.03;49.40;101072.38;4981142;28;45361;-73
2022/04/02 03:15:36;;;;;;;;;6.75;6.25;;;;;6.01;48.84;101075.91;4982360;28;45670;-73
2022/04/02 03:18:04;;;;;;;;;7.00;5.75;;;;;5.94;49.96;101061.81;4980947;28;45350;-73
2022/04/02 03:20:31;;;;;;;;;8.25;6.00;;;;;6.00;48.95;101063.56;4971661;28;45405;-73
2022/04/02 03:22:57;;;;;;;;;5.00;5.00;;;;;6.02;49.04;101078.56;4978176;28;45822;-72
2022/04/02 03:25:23;;;;;;;;;6.25;6.00;;;;;6.04;49.46;101071.47;4973280;28;47282;-73
2022/04/02 03:27:49;;;;;;;;;5.75;5.00;;;;;6.02;49.32;101072.38;4978161;28;45174;-73
2022/04/02 03:30:22;;;;;;;;;0.25;0.25;;;;;5.98;49.55;101083.88;4981337;28;45338;-72
2022/04/02 03:32:48;;;;;;;;;5.75;5.75;;;;;5.98;50.04;101081.25;4977061;28;45550;-73
2022/04/02 03:35:14;;;;;;;;;6.00;5.00;;;;;5.82;49.49;101064.56;4982059;28;46090;-73
2022/04/02 03:37:41;;;;;;;;;1.00;1.00;;;;;5.88;49.43;101070.69;4981994;28;45685;-73
2022/04/02 03:40:08;;;;;;;;;7.25;5.50;;;;;5.93;49.31;101066.25;4980988;28;45411;-73
2022/04/02 03:42:37;;;;;;;;;6.75;6.50;;;;;5.89;49.76;101066.28;4980801;28;45285;-73
2022/04/02 03:45:07;;;;;;;;;8.25;6.75;;;;;6.00;49.22;101090.94;4977440;28;47035;-73
2022/04/02 03:47:32;;;;;;;;;11.25;7.75;;;;;6.01;49.17;101082.09;4980968;28;45602;-73
2022/04/02 03:49:58;;;;;;;;;6.00;5.50;;;;;5.92;48.62;101071.56;4982001;28;45283;-73
2022/04/02 03:52:25;;;;;;;;;7.00;5.00;;;;;5.97;48.95;101084.81;4975584;28;45411;-73
2022/04/02 03:54:50;;;;;;;;;5.00;5.00;;;;;5.89;49.47;101069.78;4978057;28;45434;-74
2022/04/02 03:57:16;;;;;;;;;9.00;6.25;;;;;5.86;49.27;101077.75;4979524;28;46111;-73
2022/04/02 03:59:43;;;;;;;;;7.00;7.00;;;;;5.93;49.94;101075.94;4977499;28;45376;-73
2022/04/02 04:02:08;;;;;;;;;8.75;6.75;;;;;5.91;49.14;101083.94;4980080;28;45268;-73
2022/04/02 04:04:35;;;;;;;;;6.00;5.75;;;;;5.84;49.63;101079.53;4981517;28;45472;-73
2022/04/02 04:07:01;;;;;;;;;8.25;5.25;;;;;5.81;49.26;101092.81;4980208;28;45371;-72
2022/04/02 04:09:27;;;;;;;;;7.75;6.00;;;;;5.83;49.37;101090.16;4980591;28;45504;-74
2022/04/02 04:11:54;;;;;;;;;9.00;5.75;;;;;5.74;49.33;101078.72;4971306;28;45507;-73
2022/04/02 04:14:20;;;;;;;;;6.00;6.00;;;;;5.84;50.33;101102.53;4981362;28;45407;-74
2022/04/02 04:16:47;;;;;;;;;5.00;3.00;;;;;5.82;50.18;101101.66;4976898;28;45704;-72
2022/04/02 04:19:13;;;;;;;;;9.00;5.00;;;;;5.70;50.05;101107.91;4975317;28;45448;-72
2022/04/02 04:21:39;;;;;;;;;8.50;6.00;;;;;5.70;49.55;101111.44;4971373;28;45520;-73
2022/04/02 04:24:05;;;;;;;;;5.50;5.50;;;;;5.62;49.45;101084.13;4981527;28;45892;-73
2022/04/02 04:26:30;;;;;;;;;6.75;6.75;;;;;5.74;49.76;101107.88;4980981;28;45432;-73
2022/04/02 04:28:56;;;;;;;;;4.50;3.00;;;;;5.64;50.32;101102.66;4981691;28;45309;-73
2022/04/02 04:31:22;;;;;;;;;5.75;5.75;;;;;5.76;49.68;101123.75;4980271;28;45284;-73
2022/04/02 04:33:48;;;;;;;;;7.00;7.00;;;;;5.75;49.61;101112.28;4980921;28;45574;-73
2022/04/02 04:36:15;;;;;;;;;8.50;7.25;;;;;5.63;49.87;101100.88;4980915;28;45471;-73
2022/04/02 04:38:43;;;;;;;;;9.75;6.00;;;;;5.74;49.59;101125.53;4981390;28;45297;-72
2022/04/02 04:41:08;;;;;;;;;3.00;3.00;;;;;5.76;48.99;101110.50;4975053;28;45254;-73
2022/04/02 04:43:34;;;;;;;;;7.00;5.75;;;;;5.60;49.57;101106.19;4974228;28;46165;-74
2022/04/02 04:46:02;;;;;;;;;8.50;5.00;;;;;5.74;49.45;101136.13;4980864;28;45320;-72
2022/04/02 04:48:28;;;;;;;;;10.25;5.75;;;;;5.72;49.28;101135.28;4980518;28;45370;-73
2022/04/02 04:50:53;;;;;;;;;6.00;6.00;;;;;5.71;49.80;101131.75;4979915;28;45350;-73
2022/04/02 04:53:19;;;;;;;;;7.00;6.00;;;;;5.62;49.23;101115.91;4980947;28;45312;-73
2022/04/02 04:55:44;;;;;;;;;6.00;6.00;;;;;5.70;50.32;101135.28;4979146;28;46364;-73
2022/04/02 04:58:09;;;;;;;;;5.75;3.00;;;;;5.63;49.84;101132.66;4981118;28;45332;-73
2022/04/02 05:00:35;;;;;;;;;7.00;7.00;;;;;5.65;49.52;101139.72;4978538;28;45586;-72
2022/04/02 05:03:00;;;;;;;;;9.00;9.00;;;;;5.71;49.88;101128.19;4976215;28;47803;-73
2022/04/02 05:05:28;;;;;;;;;8.25;7.00;;;;;5.75;49.82;101151.16;4978700;28;45220;-73
2022/04/02 05:07:54;;;;;;;;;5.75;5.75;;;;;5.71;49.77;101133.50;4980844;28;45464;-73
2022/04/02 05:10:20;;;;;;;;;6.75;6.50;;;;;5.64;50.04;101129.13;4976864;28;45602;-73
2022/04/02 05:12:45;;;;;;;;;10.50;8.75;;;;;5.70;50.01;101159.13;4978593;28;46941;-73
2022/04/02 05:15:11;;;;;;;;;14.50;6.00;;;;;5.73;50.35;101160.84;4966389;28;45250;-72
2022/04/02 05:17:37;;;;;;;;;9.25;7.00;;;;;5.72;49.42;101159.09;4980960;28;45475;-73
2022/04/02 05:20:03;;;;;;;;;9.00;7.00;;;;;5.73;49.95;101159.09;4965305;28;45897;-72
2022/04/02 05:22:29;;;;;;;;;8.25;7.00;;;;;5.68;49.25;101168.84;4978984;28;48208;-73
2022/04/02 05:24:54;;;;;;;;;3.00;2.25;;;;;5.74;50.11;101170.56;4979190;28;45435;-73
2022/04/02 05:27:20;;;;;;;;;6.00;5.00;;;;;5.54;49.43;101139.75;4980697;28;45452;-73
2022/04/02 05:29:46;;;;;;;;;8.75;8.25;;;;;5.68;49.97;101168.84;4977162;28;45487;-73
2022/04/02 05:32:11;;;;;;;;;7.50;6.00;;;;;5.60;48.89;101154.75;4984636;28;47162;-72
2022/04/02 05:34:37;;;;;;;;;9.00;6.00;;;;;5.64;49.27;101160.91;4978740;28;45199;-73
2022/04/02 05:37:03;;;;;;;;;10.00;9.00;;;;;5.69;49.45;101164.41;4980511;28;45532;-73
2022/04/02 05:39:28;;;;;;;;;5.50;5.50;;;;;5.74;49.90;101181.16;4979709;28;45317;-73
2022/04/02 05:41:54;;;;;;;;;8.50;5.00;;;;;5.65;48.92;101158.25;4979236;28;45218;-73
2022/04/02 05:44:19;;;;;;;;;5.25;5.25;;;;;5.84;50.32;101187.28;4980011;28;45435;-73
2022/04/02 05:46:44;;;;;;;;;9.25;6.50;;;;;5.72;49.50;101178.53;4980132;28;45297;-72
2022/04/02 05:49:11;;;;;;;;;10.00;9.00;;;;;5.62;49.60;101173.28;4972043;28;45166;-73
2022/04/02 05:51:37;;;;;;;;;5.75;4.00;;;;;5.64;49.81;101176.81;4979218;28;45896;-73
2022/04/02 05:54:02;;;;;;;;;8.25;8.25;;;;;5.66;49.87;101190.91;4979984;28;45531;-73
2022/04/02 05:56:28;;;;;;;;;12.00;8.75;;;;;5.64;50.09;101196.22;4978642;28;45408;-72
2022/04/02 05:58:54;;;;;;;;;6.75;6.75;;;;;5.65;49.26;101192.69;4990058;28;45415;-72
2022/04/02 06:01:19;;;;;;;;;9.25;9.25;;;;;5.66;49.36;101196.22;4975224;28;45412;-73
2022/04/02 06:03:46;;;;;;;;;7.50;6.50;;;;;5.65;49.56;101199.78;4979719;28;45460;-73
2022/04/02 06:06:12;;;;;;;;;7.25;6.25;;;;;5.74;49.80;101205.00;4980091;28;45280;-75
2022/04/02 06:08:37;;;;;;;;;7.00;7.00;;;;;5.64;49.36;101192.69;4978632;28;45242;-73
2022/04/02 06:11:02;;;;;;;;;9.25;7.50;;;;;5.75;50.04;101212.06;4978246;28;46267;-72
2022/04/02 06:13:28;;;;;;;;;6.25;6.00;;;;;5.78;49.56;101217.38;4978641;28;45332;-73
2022/04/02 06:15:54;;;;;;;;;10.00;6.50;;;;;5.72;48.57;101212.09;4979871;28;45344;-73
2022/04/02 06:18:19;;;;;;;;;6.25;6.25;;;;;5.69;49.82;101209.44;4979762;28;45499;-74
2022/04/02 06:20:47;;;;;;;;;6.75;6.75;;;;;5.69;49.06;101220.03;4979963;28;47310;-73
2022/04/02 06:23:13;;;;;;;;;5.00;4.00;;;;;5.60;49.35;101214.78;4980946;28;45948;-73
2022/04/02 06:25:39;;;;;;;;;6.25;5.50;;;;;5.63;49.60;101226.25;4982782;28;45304;-73
2022/04/02 06:28:05;;;;;;;;;7.00;7.00;;;;;5.64;49.71;101219.19;4981080;28;45501;-73
2022/04/02 06:30:30;;;;;;;;;6.50;6.00;;;;;5.67;49.56;101225.34;4973214;28;45499;-73
2022/04/02 06:32:55;;;;;;;;;7.50;7.25;;;;;5.75;49.98;101223.53;4979159;28;45657;-66
2022/04/02 06:35:21;;;;;;;;;7.25;6.50;;;;;5.76;48.92;101229.72;4978265;28;45377;-72
2022/04/02 06:37:48;;;;;;;;;9.25;5.50;;;;;5.75;49.51;101239.44;4980698;28;45517;-72
2022/04/02 06:40:14;;;;;;;;;4.00;1.00;;;;;5.74;49.18;101239.44;4974250;28;45316;-72
2022/04/02 06:42:40;;;;;;;;;11.00;7.50;;;;;5.75;49.16;101243.88;4985398;28;45264;-72
2022/04/02 06:45:07;;;;;;;;;6.50;6.00;;;;;5.69;50.35;101241.22;4974846;28;45340;-75
2022/04/02 06:47:33;;;;;;;;;8.25;6.50;;;;;5.63;49.96;101231.56;4976226;28;45420;-73
2022/04/02 06:50:02;;;;;;;;;6.75;5.75;;;;;5.71;50.14;101236.81;4982340;28;46031;-75
2022/04/02 06:52:28;;;;;;;;;8.00;6.00;;;;;5.73;50.16;101238.56;4974022;28;45265;-75
2022/04/02 06:54:53;;;;;;;;;5.75;4.50;;;;;5.83;49.44;101257.97;4983807;28;45425;-75
2022/04/02 06:57:20;;;;;;;;;7.50;6.25;;;;;5.78;50.59;101253.56;4982382;28;45397;-75
2022/04/02 06:59:45;;;;;;;;;6.50;6.00;;;;;5.77;49.97;101254.47;4982780;28;45290;-73
2022/04/02 07:02:11;;;;;;;;;7.00;5.50;;;;;5.76;49.85;101272.09;4982625;28;45431;-72
2022/04/02 07:04:36;;;;;;;;;9.25;7.00;;;;;5.71;49.48;101264.19;4982520;28;45226;-72
2022/04/02 07:07:02;;;;;;;;;4.75;4.50;;;;;5.60;49.69;101249.19;4982644;28;45510;-72
2022/04/02 07:09:28;;;;;;;;;6.50;6.00;;;;;5.60;49.44;101254.50;4971349;28;45396;-72
2022/04/02 07:11:53;;;;;;;;;6.75;6.00;;;;;5.59;49.52;101255.41;4982702;28;45701;-72
2022/04/02 07:14:18;;;;;;;;;5.50;4.50;;;;;5.70;49.40;101273.03;4982583;28;45296;-72
2022/04/02 07:16:44;;;;;;;;;5.00;5.00;;;;;5.72;49.54;101275.66;4982301;28;45635;-73
2022/04/02 07:19:10;;;;;;;;;9.25;6.25;;;;;5.68;49.32;101268.59;4982073;28;46524;-75
2022/04/02 07:21:36;;;;;;;;;6.00;4.00;;;;;5.58;49.41;101262.47;4981978;28;45439;-72
2022/04/02 07:24:02;;;;;;;;;4.50;4.50;;;;;5.54;49.81;101282.78;4977497;28;45305;-70
2022/04/02 07:26:31;;;;;;;;;9.50;6.25;;;;;5.43;49.62;101262.50;4976995;28;45313;-71
2022/04/02 07:28:57;;;;;;;;;6.00;4.50;;;;;5.57;49.60;101282.75;4981917;28;45364;-73
2022/04/02 07:31:23;;;;;;;;;5.50;5.00;;;;;5.58;50.06;101291.63;4983996;28;45751;-74
2022/04/02 07:33:48;;;;;;;;;7.00;6.00;;;;;5.56;49.69;101274.81;4983911;28;45388;-71
2022/04/02 07:36:29;;;;;;;;;4.25;1.75;;;;;5.69;49.81;101308.31;4982093;28;45374;-71
2022/04/02 07:39:39;;;;;;;;;3.50;3.00;;;;;5.75;50.03;101295.06;4982355;28;47592;-71
2022/04/02 07:42:21;;;;;;;;;8.50;5.25;;;;;5.83;49.90;101296.81;4966979;28;45502;-71
2022/04/02 07:45:08;;;;;;;;;6.50;5.75;;;;;5.87;49.64;101293.28;4985373;28;45431;-75
2022/04/02 07:47:38;;;;;;;;;5.50;5.50;;;;;5.81;49.46;101282.69;4976451;28;45490;-72
2022/04/02 07:50:07;;;;;;;;;3.00;3.00;;;;;5.92;49.26;101291.47;4974433;28;46183;-72
2022/04/02 07:52:33;;;;;;;;;6.25;5.75;;;;;5.98;49.12;101301.19;4979341;28;45480;-73
2022/04/02 07:55:00;;;;;;;;;6.75;6.75;;;;;6.02;49.33;101298.53;4977760;28;45278;-73
2022/04/02 07:57:46;;;;;;;;;2.25;2.25;;;;;6.00;48.98;101302.97;4981766;28;45608;-72
2022/04/02 08:00:14;;;;;;;;;5.25;5.25;;;;;5.93;49.54;101291.47;4968981;28;45495;-76
2022/04/02 08:02:45;;;;;;;;;6.75;2.00;;;;;5.95;49.37;101291.47;4969414;28;45558;-73
2022/04/02 08:05:16;;;;;;;;;4.50;3.00;;;;;6.08;48.14;101310.84;4972919;28;45433;-73
2022/04/02 08:07:49;;;;;;;;;3.50;3.50;;;;;6.11;48.62;101322.34;4977588;28;45451;-73
2022/04/02 08:10:22;;;;;;;;;6.50;3.50;;;;;6.08;48.03;101301.16;4976762;28;45275;-73
2022/04/02 08:12:47;;;;;;;;;3.00;3.00;;;;;6.13;48.50;101314.38;4969122;28;45608;-70
2022/04/02 08:15:24;;;;;;;;;6.75;6.50;;;;;6.24;48.23;101317.84;4981792;28;45433;-71
2022/04/02 08:17:53;;;;;;;;;5.50;5.50;;;;;6.27;48.30;101322.28;4978374;28;45502;-70
2022/04/02 08:20:19;;;;;;;;;5.00;3.00;;;;;6.36;48.39;101323.97;4992401;28;47490;-73
2022/04/02 08:22:45;;;;;;;;;9.50;7.00;;;;;6.42;48.44;101321.31;4970668;28;45376;-72
2022/04/02 08:25:12;;;;;;;;;7.00;7.00;;;;;6.40;48.53;101312.44;4980963;28;45324;-74
2022/04/02 08:27:50;;;;;;;;;5.75;5.75;;;;;6.44;48.14;101332.78;4972208;28;45443;-73
2022/04/02 08:30:18;;;;;;;;;3.50;2.00;;;;;6.38;48.39;101319.53;4981032;28;46206;-73
2022/04/02 08:33:11;;;;;;;;;5.00;5.00;;;;;6.43;48.28;101341.63;4993748;28;45709;-72
2022/04/02 08:35:45;;;;;;;;;6.00;5.75;;;;;6.41;46.95;101336.31;4980987;28;45356;-73
2022/04/02 08:38:34;;;;;;;;;3.50;3.50;;;;;6.42;46.86;101324.81;4981165;28;45344;-73
2022/04/02 08:41:37;;;;;;;;;4.00;4.00;;;;;6.43;46.88;101331.91;4970225;28;45380;-73
2022/04/02 08:44:21;;;;;;;;;3.00;3.00;;;;;6.49;47.59;101339.81;4968551;28;45344;-71
2022/04/02 08:47:00;;;;;;;;;4.00;2.00;;;;;6.55;47.29;101340.66;4972241;28;45460;-72
2022/04/02 08:49:37;;;;;;;;;5.25;3.50;;;;;6.57;47.49;101336.25;4980867;28;45312;-72
2022/04/02 08:52:15;;;;;;;;;4.25;3.00;;;;;6.62;46.88;101326.50;4966619;28;47580;-72
2022/04/02 08:54:52;;;;;;;;;3.00;3.00;;;;;6.67;45.99;101328.19;4979290;28;45447;-73
2022/04/02 08:57:58;;;;;;;;;4.25;3.00;;;;;6.68;45.61;101345.00;4971575;28;45459;-72
2022/04/02 09:00:25;;;;;;;;;5.00;3.00;;;;;6.59;45.27;101319.41;4959822;28;45327;-72
2022/04/02 09:02:54;;;;;;;;;4.50;3.00;;;;;6.76;45.25;101344.94;4980650;28;45857;-72
2022/04/02 09:05:33;;;;;;;;;2.50;2.50;;;;;6.66;46.59;101312.28;4980732;28;45337;-73
2022/04/02 09:08:22;;;;;;;;;4.50;3.00;;;;;6.87;46.25;101343.13;4976270;28;45433;-72
2022/04/02 09:11:09;;;;;;;;;4.25;3.75;;;;;6.96;46.11;101352.78;4969778;28;45573;-74
2022/04/02 09:13:44;;;;;;;;;5.75;5.00;;;;;7.00;45.35;101331.50;4979723;28;46149;-71
2022/04/02 09:16:24;;;;;;;;;5.00;4.50;;;;;7.06;45.41;101354.44;4976196;28;45187;-71
2022/04/02 09:19:11;;;;;;;;;3.00;3.00;;;;;6.98;44.75;101348.31;4978283;28;45405;-71
2022/04/02 09:22:03;;;;;;;;;4.50;2.75;;;;;6.76;45.30;101299.84;4973388;28;45491;-72
2022/04/02 09:24:37;;;;;;;;;5.00;5.00;;;;;7.12;44.91;101357.06;4974792;28;47673;-71
2022/04/02 09:27:20;;;;;;;;;5.50;5.00;;;;;7.15;45.01;101361.47;4975790;28;45641;-73
2022/04/02 09:29:59;;;;;;;;;5.25;3.00;;;;;7.11;45.29;101346.47;4980665;28;45274;-71
2022/04/02 09:32:39;;;;;;;;;3.00;3.00;;;;;7.19;44.82;101342.84;4978379;28;45539;-68
2022/04/02 09:35:16;;;;;;;;;6.25;5.25;;;;;7.21;44.64;101356.09;4980160;28;46209;-69
2022/04/02 09:38:26;;;;;;;;;4.75;4.75;;;;;7.16;44.52;101353.47;4980423;28;45167;-68
2022/04/02 09:40:56;;;;;;;;;3.50;3.50;;;;;7.19;44.29;101364.09;4952997;28;45392;-69
2022/04/02 09:43:31;;;;;;;;;4.50;4.50;;;;;7.17;43.77;101359.69;4980149;28;45266;-69
2022/04/02 09:46:15;;;;;;;;;3.50;3.50;;;;;7.19;43.91;101368.53;4992934;28;47286;-74
2022/04/02 09:49:08;;;;;;;;;4.25;2.75;;;;;7.21;44.33;101366.72;4980156;28;45436;-73
2022/04/02 09:51:35;;;;;;;;;6.00;5.00;;;;;7.24;43.24;101370.22;4967614;28;45350;-72
2022/04/02 09:54:08;;;;;;;;;3.00;3.00;;;;;7.28;42.58;101364.91;4978695;28;45380;-74
2022/04/02 09:56:39;;;;;;;;;5.25;5.25;;;;;7.26;43.48;101356.06;4979749;28;45435;-73
2022/04/02 09:59:34;;;;;;;;;3.00;3.00;;;;;7.34;43.28;101363.06;4974127;28;45367;-73
2022/04/02 10:02:06;;;;;;;;;5.00;2.75;;;;;7.35;43.44;101348.00;4983685;28;45407;-71
2022/04/02 10:04:42;;;;;;;;;2.00;2.00;;;;;7.49;43.28;101348.75;4970709;28;45515;-72
2022/04/02 10:07:19;;;;;;;;;2.50;2.50;;;;;7.56;42.80;101353.09;4983315;28;45321;-71
2022/04/02 10:09:46;;;;;;;;;3.00;3.00;;;;;7.59;42.54;101363.72;4970251;28;45440;-73
2022/04/02 10:12:14;;;;;;;;;4.25;4.25;;;;;7.63;42.17;101359.25;4979453;28;45565;-72
2022/04/02 10:14:41;;;;;;;;;5.75;4.25;;;;;7.54;42.36;101338.09;4983431;28;45363;-72
2022/04/02 10:17:08;;;;;;;;;6.00;3.75;;;;;7.60;42.05;101353.94;4983090;28;45518;-72
2022/04/02 10:19:36;;;;;;;;;3.75;3.75;;;;;7.65;42.16;101356.56;4974655;28;45297;-73
2022/04/02 10:22:11;;;;;;;;;5.25;3.00;;;;;7.72;42.11;101369.78;4982522;28;45411;-74
2022/04/02 10:24:47;;;;;;;;;4.00;4.00;;;;;7.60;42.27;101333.59;4982531;28;45250;-71
2022/04/02 10:27:32;;;;;;;;;3.00;3.00;;;;;7.75;41.56;101363.53;4982903;28;46393;-69
2022/04/02 10:30:07;;;;;;;;;4.00;4.00;;;;;7.79;41.92;101362.63;4972520;28;45190;-69
2022/04/02 10:32:41;;;;;;;;;4.50;3.50;;;;;7.73;41.74;101360.91;4982173;28;45506;-71
2022/04/02 10:35:09;;;;;;;;;5.25;3.50;;;;;7.74;41.46;101353.84;4978504;28;45404;-71
2022/04/02 10:37:39;;;;;;;;;4.25;2.25;;;;;7.75;41.61;101351.16;4980380;28;45328;-71
2022/04/02 10:40:09;;;;;;;;;10.75;4.00;;;;;7.75;41.55;101347.59;4982467;28;45451;-71
2022/04/02 10:42:56;;;;;;;;;4.00;3.25;;;;;7.86;41.16;101351.03;4991209;28;45416;-69
2022/04/02 10:45:22;;;;;;;;;4.00;4.00;;;;;7.76;41.66;101334.28;4972283;28;45614;-69
2022/04/02 10:48:09;;;;;;;;;3.50;3.00;;;;;7.93;41.04;101354.50;4991459;28;47532;-70
2022/04/02 10:50:38;;;;;;;;;8.00;6.00;;;;;7.86;41.12;101331.53;4981047;28;45778;-70
2022/04/02 10:53:05;;;;;;;;;6.00;4.00;;;;;7.96;41.49;101339.38;4980060;28;45264;-68
2022/04/02 10:55:31;;;;;;;;;3.00;2.00;;;;;8.01;40.92;101343.78;4979852;28;45468;-70
2022/04/02 10:57:59;;;;;;;;;4.00;4.00;;;;;8.00;40.98;101342.00;4982781;28;46080;-70
2022/04/02 11:00:26;;;;;;;;;3.00;3.00;;;;;7.97;40.15;101346.47;4982643;28;45647;-70
2022/04/02 11:03:02;;;;;;;;;4.00;3.00;;;;;7.98;39.66;101350.00;4982966;28;45305;-70
2022/04/02 11:05:29;;;;;;;;;4.00;2.25;;;;;8.05;40.30;101350.81;4978048;28;45388;-70
2022/04/02 11:08:04;;;;;;;;;3.75;3.75;;;;;8.09;40.24;101353.41;4983979;28;46041;-70
2022/04/02 11:10:33;;;;;;;;;3.50;3.00;;;;;8.03;39.87;101326.88;4997644;28;45778;-70
2022/04/02 11:13:00;;;;;;;;;3.25;3.25;;;;;8.13;39.72;101328.53;4982971;28;45366;-71
2022/04/02 11:15:27;;;;;;;;;5.50;5.50;;;;;8.18;39.77;101331.13;4979327;28;45329;-72
2022/04/02 11:17:58;;;;;;;;;3.25;3.25;;;;;8.26;38.58;101333.72;4974804;28;46330;-69
2022/04/02 11:20:31;;;;;;;;;7.00;4.00;;;;;8.33;39.47;101348.69;4974209;28;46002;-69
2022/04/02 11:23:11;;;;;;;;;4.00;3.00;;;;;8.27;39.67;101336.34;4981854;28;45463;-70
2022/04/02 11:25:43;;;;;;;;;4.50;4.50;;;;;8.41;39.81;101361.88;4973779;28;45824;-71
2022/04/02 11:28:13;;;;;;;;;4.00;2.75;;;;;8.39;39.48;101353.91;4991664;28;47397;-71
2022/04/02 11:30:48;;;;;;;;;3.00;3.00;;;;;8.32;39.45;101345.16;4982194;28;45429;-71
2022/04/02 11:33:15;;;;;;;;;2.00;2.00;;;;;8.33;39.48;101356.66;4979351;28;46495;-71
2022/04/02 11:35:47;;;;;;;;;2.25;2.25;;;;;8.38;39.13;101346.81;4977199;28;45531;-73
2022/04/02 11:38:18;;;;;;;;;3.25;2.50;;;;;8.42;38.12;101337.03;4996184;28;47451;-72
2022/04/02 11:40:54;;;;;;;;;4.25;3.75;;;;;8.41;38.27;101354.78;4970426;28;45882;-71
2022/04/02 11:43:31;;;;;;;;;2.00;2.00;;;;;8.30;38.52;101338.97;4987587;28;45619;-72